x

Dunkirk, Ny (dbln6) Weather Station

6:00am - Fri 25th Jul 2014 All times are CDT. -5 hours from GMT.

  • Wind
    8mph, 10mph gusts
  • Air Temp 57°f
  • Sea Pressure 1018.6mb
  • Dunkirk, Ny
  • Dunkirk, Ny

More Historic Weather Station data

Upgrade to MSW Pro to gain access to the past 30 days of data for over 8000 Wavebouys and Weather Stations around the globe.

Join Pro

Comparision Forecast

View Surf forecast
   
Fri 07/25 6:00am 8 10 mph 1018.6mb 57f
5:00am 10 11 mph 1018mb 56f
4:00am 10 11 mph 1017mb 57f
3:00am 8 10 mph 1017.1mb 58f
2:00am 8 9 mph 1017.3mb 58f
1:00am 6 9 mph 1017.2mb 60f
12:00am 7 9 mph 1017.9mb 60f
Thu 07/24 11:00pm 7 9 mph 1017.9mb 60f
10:00pm 7 8 mph 1017.7mb 61f
9:00pm 6 7 mph 1017.2mb 63f
8:00pm 2 3 mph 1016.3mb 66f
7:00pm 2 3 mph 1016.3mb 69f
6:00pm 3 5 mph 1016.5mb 68f
5:00pm 6 8 mph 1016.9mb 68f
4:00pm 6 7 mph 1017.3mb 67f
3:00pm 6 8 mph 1017.6mb 66f
2:00pm 9 11 mph 1017.8mb 66f
1:00pm 13 14 mph 1018.1mb 66f
12:00pm 5 7 mph 1018.3mb 65f
11:00am 7 9 mph 1018.4mb 64f
10:00am 11 13 mph 1018mb 64f
9:00am 14 16 mph 1017.8mb 64f
8:00am 16 20 mph 1017.5mb 64f
7:00am 18 23 mph 1016.9mb 64f
6:00am 7 10 mph 1016.9mb 63f
5:00am 9 13 mph 1016.3mb 64f
4:00am 17 21 mph 1015.6mb 65f
3:00am 20 22 mph 1015.1mb 65f
2:00am 18 21 mph 1015.2mb 66f
1:00am 16 20 mph 1015.5mb 67f
12:00am 15 17 mph 1015.7mb 66f
Wed 07/23 11:00pm 15 17 mph 1015.9mb 67f
10:00pm 15 17 mph 1016mb 67f
9:00pm 20 24 mph 1015.7mb 67f
8:00pm 18 23 mph 1015.6mb 67f
7:00pm 21 23 mph 1014.8mb 68f
6:00pm 18 21 mph 1013.8mb 70f
5:00pm 17 18 mph 1013.4mb 71f
4:00pm 11 16 mph 1013.5mb 71f
3:00pm 7 11 mph 1014mb 72f
2:00pm 5 7 mph 1014.1mb 71f
1:00pm 6 8 mph 1014.1mb 70f
12:00pm 6 8 mph 1013.3mb 71f
11:00am 6 13 mph 1012.8mb 71f
10:00am 16 20 mph 1012.3mb 73f
9:00am 16 21 mph 1012mb 74f
8:00am 14 18 mph 1012.3mb 74f
7:00am 18 22 mph 1011.4mb 76f
6:00am 13 16 mph 1011mb 77f
5:00am 20 23 mph 1011.8mb 78f
4:00am 9 14 mph 1011.8mb 78f
3:00am 7 11 mph 1012.1mb 78f
2:00am 9 11 mph 1013mb 78f
1:00am 6 11 mph 1013.4mb 77f
12:00am 3 7 mph 1014.3mb 76f
Tue 07/22 11:00pm 5 8 mph 1014.3mb 77f
10:00pm 6 7 mph 1014.5mb 77f
9:00pm 6 8 mph 1014.6mb 77f
8:00pm 5 7 mph 1015mb 79f
7:00pm 3 7 mph 1015.5mb 80f
6:00pm 5 6 mph 1016.1mb 81f
5:00pm 3 5 mph 1016.3mb 80f
4:00pm 3
mph
1016.4mb 80f
3:00pm 3 5 mph 1016.8mb 79f
2:00pm 3 5 mph 1017.3mb 79f
1:00pm 5 6 mph 1017.8mb 78f
12:00pm 1 2 mph 1018.7mb 77f
11:00am  -  2 mph 1019.4mb 76f
10:00am 2 3 mph 1020mb 75f
9:00am  -  1 mph 1019.9mb 75f
8:00am  -  1 mph 1020.2mb 78f
7:00am 2
mph
1020.5mb 73f
6:00am 3
mph
1020.4mb 70f
5:00am  -  1 mph 1020.5mb 67f
4:00am 3 5 mph 1020.1mb 66f
3:00am  -  1 mph 1020mb 68f
2:00am 3 5 mph 1019.8mb 68f
1:00am 8 9 mph 1019.9mb 68f
12:00am 7 8 mph 1020.2mb 68f
Mon 07/21 11:00pm 7
mph
1020.3mb 69f
10:00pm 7 9 mph 1020.1mb 71f
9:00pm 6
mph
1020.4mb 72f
8:00pm 3
mph
1020mb 74f
7:00pm 2 3 mph 1020mb 77f
6:00pm 1 2 mph 1020mb 77f
5:00pm 1
mph
1020.2mb 77f
4:00pm 1 2 mph 1020.2mb 76f
3:00pm  -  1 mph 1020.3mb 75f
2:00pm 1 3 mph 1020.5mb 74f
1:00pm 3 6 mph 1020.5mb 74f